sensor_id;sensor_type;location;lat;lon;timestamp;P1;durP1;ratioP1;P2;durP2;ratioP2
6027;SDS011;3042;43.194;27.646;2023-03-04T00:02:21;57.10;;;52.90;;
6027;SDS011;3042;43.194;27.646;2023-03-04T00:04:48;52.13;;;48.20;;
6027;SDS011;3042;43.194;27.646;2023-03-04T00:07:17;54.73;;;50.70;;
6027;SDS011;3042;43.194;27.646;2023-03-04T00:09:44;61.80;;;57.70;;
6027;SDS011;3042;43.194;27.646;2023-03-04T00:12:11;54.77;;;50.83;;
6027;SDS011;3042;43.194;27.646;2023-03-04T00:14:38;56.90;;;53.00;;
6027;SDS011;3042;43.194;27.646;2023-03-04T00:17:05;62.43;;;57.93;;
6027;SDS011;3042;43.194;27.646;2023-03-04T00:19:33;56.73;;;52.73;;
6027;SDS011;3042;43.194;27.646;2023-03-04T00:22:00;56.80;;;52.83;;
6027;SDS011;3042;43.194;27.646;2023-03-04T00:24:29;54.80;;;51.00;;
6027;SDS011;3042;43.194;27.646;2023-03-04T00:26:56;56.67;;;52.77;;
6027;SDS011;3042;43.194;27.646;2023-03-04T00:29:23;56.47;;;52.27;;
6027;SDS011;3042;43.194;27.646;2023-03-04T00:31:50;61.37;;;57.23;;
6027;SDS011;3042;43.194;27.646;2023-03-04T00:34:17;65.13;;;60.27;;
6027;SDS011;3042;43.194;27.646;2023-03-04T00:36:44;59.97;;;55.60;;
6027;SDS011;3042;43.194;27.646;2023-03-04T00:39:12;60.57;;;56.13;;
6027;SDS011;3042;43.194;27.646;2023-03-04T00:41:41;58.83;;;54.60;;
6027;SDS011;3042;43.194;27.646;2023-03-04T00:44:08;52.73;;;49.03;;
6027;SDS011;3042;43.194;27.646;2023-03-04T00:46:35;53.50;;;49.83;;
6027;SDS011;3042;43.194;27.646;2023-03-04T00:49:02;53.73;;;49.90;;
6027;SDS011;3042;43.194;27.646;2023-03-04T00:51:29;57.40;;;53.50;;
6027;SDS011;3042;43.194;27.646;2023-03-04T00:53:56;61.17;;;56.97;;
6027;SDS011;3042;43.194;27.646;2023-03-04T00:56:23;57.97;;;53.97;;
6027;SDS011;3042;43.194;27.646;2023-03-04T00:58:51;60.20;;;56.40;;
6027;SDS011;3042;43.194;27.646;2023-03-04T01:01:18;54.80;;;51.10;;
6027;SDS011;3042;43.194;27.646;2023-03-04T01:03:45;58.23;;;53.97;;
6027;SDS011;3042;43.194;27.646;2023-03-04T01:06:12;57.73;;;53.37;;
6027;SDS011;3042;43.194;27.646;2023-03-04T01:08:39;57.83;;;53.47;;
6027;SDS011;3042;43.194;27.646;2023-03-04T01:11:07;59.87;;;55.33;;
6027;SDS011;3042;43.194;27.646;2023-03-04T01:13:34;53.40;;;49.70;;
6027;SDS011;3042;43.194;27.646;2023-03-04T01:16:02;57.80;;;53.83;;
6027;SDS011;3042;43.194;27.646;2023-03-04T01:18:30;59.60;;;55.33;;
6027;SDS011;3042;43.194;27.646;2023-03-04T01:20:57;57.20;;;53.00;;
6027;SDS011;3042;43.194;27.646;2023-03-04T01:23:24;60.23;;;55.87;;
6027;SDS011;3042;43.194;27.646;2023-03-04T01:25:51;63.80;;;59.20;;
6027;SDS011;3042;43.194;27.646;2023-03-04T01:28:18;55.73;;;52.13;;
6027;SDS011;3042;43.194;27.646;2023-03-04T01:30:45;56.70;;;52.30;;
6027;SDS011;3042;43.194;27.646;2023-03-04T01:33:14;63.10;;;58.67;;
6027;SDS011;3042;43.194;27.646;2023-03-04T01:35:41;60.33;;;55.83;;
6027;SDS011;3042;43.194;27.646;2023-03-04T01:38:08;58.37;;;54.27;;
6027;SDS011;3042;43.194;27.646;2023-03-04T01:40:35;56.10;;;52.20;;
6027;SDS011;3042;43.194;27.646;2023-03-04T01:43:03;55.33;;;51.43;;
6027;SDS011;3042;43.194;27.646;2023-03-04T01:45:30;56.40;;;52.47;;
6027;SDS011;3042;43.194;27.646;2023-03-04T01:47:58;61.93;;;57.50;;
6027;SDS011;3042;43.194;27.646;2023-03-04T01:50:29;63.87;;;59.17;;
6027;SDS011;3042;43.194;27.646;2023-03-04T01:52:59;61.27;;;56.77;;
6027;SDS011;3042;43.194;27.646;2023-03-04T01:55:26;58.40;;;54.23;;
6027;SDS011;3042;43.194;27.646;2023-03-04T01:57:55;58.47;;;54.20;;
6027;SDS011;3042;43.194;27.646;2023-03-04T02:00:24;60.13;;;56.03;;
6027;SDS011;3042;43.194;27.646;2023-03-04T02:02:54;60.13;;;55.87;;
6027;SDS011;3042;43.194;27.646;2023-03-04T02:05:24;64.90;;;60.50;;
6027;SDS011;3042;43.194;27.646;2023-03-04T02:07:54;62.17;;;57.77;;
6027;SDS011;3042;43.194;27.646;2023-03-04T02:10:22;57.10;;;53.13;;
6027;SDS011;3042;43.194;27.646;2023-03-04T02:12:50;57.90;;;53.77;;
6027;SDS011;3042;43.194;27.646;2023-03-04T02:15:17;56.57;;;52.67;;
6027;SDS011;3042;43.194;27.646;2023-03-04T02:17:45;60.00;;;56.00;;
6027;SDS011;3042;43.194;27.646;2023-03-04T02:20:14;56.00;;;52.20;;
6027;SDS011;3042;43.194;27.646;2023-03-04T02:22:51;61.30;;;56.80;;
6027;SDS011;3042;43.194;27.646;2023-03-04T02:25:27;60.87;;;56.43;;
6027;SDS011;3042;43.194;27.646;2023-03-04T02:28:02;65.37;;;60.30;;
6027;SDS011;3042;43.194;27.646;2023-03-04T02:30:29;59.47;;;54.47;;
6027;SDS011;3042;43.194;27.646;2023-03-04T02:32:56;62.10;;;56.50;;
6027;SDS011;3042;43.194;27.646;2023-03-04T02:35:23;66.17;;;60.20;;
6027;SDS011;3042;43.194;27.646;2023-03-04T02:37:50;67.83;;;62.13;;
6027;SDS011;3042;43.194;27.646;2023-03-04T02:40:20;63.27;;;57.37;;
6027;SDS011;3042;43.194;27.646;2023-03-04T02:42:50;59.40;;;54.53;;
6027;SDS011;3042;43.194;27.646;2023-03-04T02:45:31;56.40;;;51.70;;
6027;SDS011;3042;43.194;27.646;2023-03-04T02:48:02;60.60;;;55.20;;
6027;SDS011;3042;43.194;27.646;2023-03-04T02:50:30;61.93;;;57.20;;
6027;SDS011;3042;43.194;27.646;2023-03-04T02:53:01;54.03;;;50.20;;
6027;SDS011;3042;43.194;27.646;2023-03-04T02:55:28;55.97;;;52.33;;
6027;SDS011;3042;43.194;27.646;2023-03-04T02:57:56;59.90;;;55.97;;
6027;SDS011;3042;43.194;27.646;2023-03-04T03:00:23;55.67;;;52.07;;
6027;SDS011;3042;43.194;27.646;2023-03-04T03:02:52;55.67;;;51.70;;
6027;SDS011;3042;43.194;27.646;2023-03-04T03:05:21;60.60;;;56.23;;
6027;SDS011;3042;43.194;27.646;2023-03-04T03:07:49;55.23;;;51.40;;
6027;SDS011;3042;43.194;27.646;2023-03-04T03:10:16;55.40;;;51.60;;
6027;SDS011;3042;43.194;27.646;2023-03-04T03:12:43;54.83;;;51.13;;
6027;SDS011;3042;43.194;27.646;2023-03-04T03:15:10;56.60;;;52.57;;
6027;SDS011;3042;43.194;27.646;2023-03-04T03:17:38;58.53;;;54.43;;
6027;SDS011;3042;43.194;27.646;2023-03-04T03:20:07;58.03;;;53.90;;
6027;SDS011;3042;43.194;27.646;2023-03-04T03:22:36;60.47;;;56.00;;
6027;SDS011;3042;43.194;27.646;2023-03-04T03:25:04;54.90;;;51.03;;
6027;SDS011;3042;43.194;27.646;2023-03-04T03:27:32;60.27;;;55.77;;
6027;SDS011;3042;43.194;27.646;2023-03-04T03:29:59;53.30;;;49.30;;
6027;SDS011;3042;43.194;27.646;2023-03-04T03:32:26;60.30;;;55.77;;
6027;SDS011;3042;43.194;27.646;2023-03-04T03:34:53;60.00;;;55.70;;
6027;SDS011;3042;43.194;27.646;2023-03-04T03:37:21;55.47;;;51.37;;
6027;SDS011;3042;43.194;27.646;2023-03-04T03:39:48;52.87;;;49.03;;
6027;SDS011;3042;43.194;27.646;2023-03-04T03:42:15;57.67;;;53.30;;
6027;SDS011;3042;43.194;27.646;2023-03-04T03:44:42;57.17;;;52.20;;
6027;SDS011;3042;43.194;27.646;2023-03-04T03:47:09;61.53;;;56.80;;
6027;SDS011;3042;43.194;27.646;2023-03-04T03:49:36;74.87;;;68.43;;
6027;SDS011;3042;43.194;27.646;2023-03-04T03:52:03;77.97;;;69.97;;
6027;SDS011;3042;43.194;27.646;2023-03-04T03:54:33;81.13;;;72.57;;
6027;SDS011;3042;43.194;27.646;2023-03-04T03:57:00;74.60;;;67.33;;
6027;SDS011;3042;43.194;27.646;2023-03-04T03:59:27;73.47;;;66.37;;
6027;SDS011;3042;43.194;27.646;2023-03-04T04:01:54;77.57;;;69.47;;
6027;SDS011;3042;43.194;27.646;2023-03-04T04:04:21;66.17;;;60.13;;
6027;SDS011;3042;43.194;27.646;2023-03-04T04:06:48;63.90;;;58.67;;
6027;SDS011;3042;43.194;27.646;2023-03-04T04:09:15;64.93;;;59.50;;
6027;SDS011;3042;43.194;27.646;2023-03-04T04:11:44;69.77;;;62.57;;
6027;SDS011;3042;43.194;27.646;2023-03-04T04:14:11;70.63;;;63.10;;
6027;SDS011;3042;43.194;27.646;2023-03-04T04:16:39;87.33;;;78.00;;
6027;SDS011;3042;43.194;27.646;2023-03-04T04:19:06;62.37;;;57.33;;
6027;SDS011;3042;43.194;27.646;2023-03-04T04:21:33;57.43;;;52.97;;
6027;SDS011;3042;43.194;27.646;2023-03-04T04:24:00;51.57;;;47.80;;
6027;SDS011;3042;43.194;27.646;2023-03-04T04:26:27;56.97;;;52.37;;
6027;SDS011;3042;43.194;27.646;2023-03-04T04:28:55;51.23;;;47.73;;
6027;SDS011;3042;43.194;27.646;2023-03-04T04:31:22;55.87;;;51.90;;
6027;SDS011;3042;43.194;27.646;2023-03-04T04:33:49;52.83;;;49.00;;
6027;SDS011;3042;43.194;27.646;2023-03-04T04:36:16;56.53;;;52.73;;
6027;SDS011;3042;43.194;27.646;2023-03-04T04:38:43;56.97;;;53.27;;
6027;SDS011;3042;43.194;27.646;2023-03-04T04:41:14;54.47;;;50.73;;
6027;SDS011;3042;43.194;27.646;2023-03-04T04:43:45;56.13;;;52.00;;
6027;SDS011;3042;43.194;27.646;2023-03-04T04:46:13;56.13;;;52.17;;
6027;SDS011;3042;43.194;27.646;2023-03-04T04:48:41;57.57;;;53.70;;
6027;SDS011;3042;43.194;27.646;2023-03-04T04:51:08;51.43;;;47.93;;
6027;SDS011;3042;43.194;27.646;2023-03-04T04:53:35;49.43;;;45.83;;
6027;SDS011;3042;43.194;27.646;2023-03-04T04:56:07;53.67;;;50.07;;
6027;SDS011;3042;43.194;27.646;2023-03-04T04:58:35;56.17;;;52.37;;
6027;SDS011;3042;43.194;27.646;2023-03-04T05:01:03;57.13;;;53.43;;
6027;SDS011;3042;43.194;27.646;2023-03-04T05:03:32;54.33;;;50.57;;
6027;SDS011;3042;43.194;27.646;2023-03-04T05:06:00;53.63;;;50.03;;
6027;SDS011;3042;43.194;27.646;2023-03-04T05:08:27;55.63;;;51.73;;
6027;SDS011;3042;43.194;27.646;2023-03-04T05:10:54;56.60;;;52.30;;
6027;SDS011;3042;43.194;27.646;2023-03-04T05:13:21;52.30;;;48.33;;
6027;SDS011;3042;43.194;27.646;2023-03-04T05:15:49;56.93;;;53.20;;
6027;SDS011;3042;43.194;27.646;2023-03-04T05:18:18;57.20;;;52.40;;
6027;SDS011;3042;43.194;27.646;2023-03-04T05:20:50;49.40;;;45.87;;
6027;SDS011;3042;43.194;27.646;2023-03-04T05:23:17;48.50;;;44.90;;
6027;SDS011;3042;43.194;27.646;2023-03-04T05:25:45;47.93;;;44.50;;
6027;SDS011;3042;43.194;27.646;2023-03-04T05:28:12;48.93;;;45.27;;
6027;SDS011;3042;43.194;27.646;2023-03-04T05:30:40;47.93;;;43.87;;
6027;SDS011;3042;43.194;27.646;2023-03-04T05:33:08;48.37;;;44.80;;
6027;SDS011;3042;43.194;27.646;2023-03-04T05:35:37;49.93;;;46.30;;
6027;SDS011;3042;43.194;27.646;2023-03-04T05:38:07;56.13;;;51.70;;
6027;SDS011;3042;43.194;27.646;2023-03-04T05:40:36;52.57;;;48.43;;
6027;SDS011;3042;43.194;27.646;2023-03-04T05:43:04;47.97;;;44.60;;
6027;SDS011;3042;43.194;27.646;2023-03-04T05:45:31;47.47;;;44.27;;
6027;SDS011;3042;43.194;27.646;2023-03-04T05:47:58;45.70;;;42.47;;
6027;SDS011;3042;43.194;27.646;2023-03-04T05:50:27;43.90;;;40.60;;
6027;SDS011;3042;43.194;27.646;2023-03-04T05:52:54;45.10;;;41.60;;
6027;SDS011;3042;43.194;27.646;2023-03-04T05:55:23;50.63;;;47.20;;
6027;SDS011;3042;43.194;27.646;2023-03-04T05:57:51;48.20;;;44.40;;
6027;SDS011;3042;43.194;27.646;2023-03-04T06:00:19;51.67;;;46.87;;
6027;SDS011;3042;43.194;27.646;2023-03-04T06:02:46;69.07;;;58.23;;
6027;SDS011;3042;43.194;27.646;2023-03-04T06:05:13;67.70;;;60.47;;
6027;SDS011;3042;43.194;27.646;2023-03-04T06:07:40;88.63;;;59.87;;
6027;SDS011;3042;43.194;27.646;2023-03-04T06:10:08;70.97;;;62.63;;
6027;SDS011;3042;43.194;27.646;2023-03-04T06:12:38;62.13;;;55.60;;
6027;SDS011;3042;43.194;27.646;2023-03-04T06:15:05;51.17;;;46.87;;
6027;SDS011;3042;43.194;27.646;2023-03-04T06:17:34;44.50;;;41.10;;
6027;SDS011;3042;43.194;27.646;2023-03-04T06:20:01;46.37;;;42.80;;
6027;SDS011;3042;43.194;27.646;2023-03-04T06:22:29;46.57;;;42.80;;
6027;SDS011;3042;43.194;27.646;2023-03-04T06:24:56;48.00;;;44.50;;
6027;SDS011;3042;43.194;27.646;2023-03-04T06:27:23;45.57;;;42.03;;
6027;SDS011;3042;43.194;27.646;2023-03-04T06:29:51;46.73;;;42.97;;
6027;SDS011;3042;43.194;27.646;2023-03-04T06:32:19;47.50;;;43.70;;
6027;SDS011;3042;43.194;27.646;2023-03-04T06:34:46;51.37;;;47.37;;
6027;SDS011;3042;43.194;27.646;2023-03-04T06:37:13;51.90;;;47.60;;
6027;SDS011;3042;43.194;27.646;2023-03-04T06:39:40;46.03;;;42.30;;
6027;SDS011;3042;43.194;27.646;2023-03-04T06:42:06;47.43;;;43.23;;
6027;SDS011;3042;43.194;27.646;2023-03-04T06:44:33;48.70;;;44.70;;
6027;SDS011;3042;43.194;27.646;2023-03-04T06:47:02;48.60;;;44.70;;
6027;SDS011;3042;43.194;27.646;2023-03-04T06:49:29;49.80;;;45.50;;
6027;SDS011;3042;43.194;27.646;2023-03-04T06:51:56;52.70;;;48.03;;
6027;SDS011;3042;43.194;27.646;2023-03-04T06:54:23;48.67;;;44.30;;
6027;SDS011;3042;43.194;27.646;2023-03-04T06:56:50;49.47;;;45.47;;
6027;SDS011;3042;43.194;27.646;2023-03-04T06:59:17;49.60;;;45.67;;
6027;SDS011;3042;43.194;27.646;2023-03-04T07:01:44;50.30;;;46.00;;
6027;SDS011;3042;43.194;27.646;2023-03-04T07:04:13;48.87;;;44.87;;
6027;SDS011;3042;43.194;27.646;2023-03-04T07:06:40;49.60;;;45.50;;
6027;SDS011;3042;43.194;27.646;2023-03-04T07:09:07;45.73;;;41.60;;
6027;SDS011;3042;43.194;27.646;2023-03-04T07:11:34;47.57;;;43.87;;
6027;SDS011;3042;43.194;27.646;2023-03-04T07:14:01;44.40;;;40.43;;
6027;SDS011;3042;43.194;27.646;2023-03-04T07:16:28;48.70;;;44.40;;
6027;SDS011;3042;43.194;27.646;2023-03-04T07:18:55;45.17;;;41.43;;
6027;SDS011;3042;43.194;27.646;2023-03-04T07:21:23;46.80;;;43.10;;
6027;SDS011;3042;43.194;27.646;2023-03-04T07:23:50;44.03;;;40.03;;
6027;SDS011;3042;43.194;27.646;2023-03-04T07:26:17;46.27;;;41.97;;
6027;SDS011;3042;43.194;27.646;2023-03-04T07:28:44;44.73;;;40.37;;
6027;SDS011;3042;43.194;27.646;2023-03-04T07:31:12;44.37;;;40.10;;
6027;SDS011;3042;43.194;27.646;2023-03-04T07:33:47;44.50;;;40.40;;
6027;SDS011;3042;43.194;27.646;2023-03-04T07:36:14;44.17;;;40.27;;
6027;SDS011;3042;43.194;27.646;2023-03-04T07:38:45;47.27;;;43.20;;
6027;SDS011;3042;43.194;27.646;2023-03-04T07:41:13;44.27;;;40.17;;
6027;SDS011;3042;43.194;27.646;2023-03-04T07:43:40;48.27;;;43.80;;
6027;SDS011;3042;43.194;27.646;2023-03-04T07:46:08;42.30;;;38.50;;
6027;SDS011;3042;43.194;27.646;2023-03-04T07:48:35;40.93;;;37.37;;
6027;SDS011;3042;43.194;27.646;2023-03-04T07:51:06;45.50;;;41.70;;
6027;SDS011;3042;43.194;27.646;2023-03-04T07:53:35;39.90;;;35.80;;
6027;SDS011;3042;43.194;27.646;2023-03-04T07:56:05;43.80;;;39.80;;
6027;SDS011;3042;43.194;27.646;2023-03-04T07:58:33;45.30;;;41.13;;
6027;SDS011;3042;43.194;27.646;2023-03-04T08:01:00;45.10;;;40.90;;
6027;SDS011;3042;43.194;27.646;2023-03-04T08:03:33;43.07;;;38.70;;
6027;SDS011;3042;43.194;27.646;2023-03-04T08:06:02;44.73;;;40.73;;
6027;SDS011;3042;43.194;27.646;2023-03-04T08:08:30;42.27;;;38.27;;
6027;SDS011;3042;43.194;27.646;2023-03-04T08:10:57;41.83;;;38.00;;
6027;SDS011;3042;43.194;27.646;2023-03-04T08:13:26;40.30;;;36.23;;
6027;SDS011;3042;43.194;27.646;2023-03-04T08:15:54;42.73;;;38.93;;
6027;SDS011;3042;43.194;27.646;2023-03-04T08:18:21;40.37;;;36.87;;
6027;SDS011;3042;43.194;27.646;2023-03-04T08:20:48;39.50;;;36.00;;
6027;SDS011;3042;43.194;27.646;2023-03-04T08:23:16;40.83;;;37.33;;
6027;SDS011;3042;43.194;27.646;2023-03-04T08:25:43;45.70;;;41.20;;
6027;SDS011;3042;43.194;27.646;2023-03-04T08:28:11;42.17;;;38.13;;
6027;SDS011;3042;43.194;27.646;2023-03-04T08:30:40;39.27;;;36.07;;
6027;SDS011;3042;43.194;27.646;2023-03-04T08:33:08;37.83;;;34.33;;
6027;SDS011;3042;43.194;27.646;2023-03-04T08:35:36;36.40;;;33.33;;
6027;SDS011;3042;43.194;27.646;2023-03-04T08:38:04;39.23;;;35.43;;
6027;SDS011;3042;43.194;27.646;2023-03-04T08:40:31;34.77;;;31.57;;
6027;SDS011;3042;43.194;27.646;2023-03-04T08:42:58;35.43;;;32.60;;
6027;SDS011;3042;43.194;27.646;2023-03-04T08:45:25;33.60;;;30.70;;
6027;SDS011;3042;43.194;27.646;2023-03-04T08:47:54;36.90;;;33.60;;
6027;SDS011;3042;43.194;27.646;2023-03-04T08:50:21;34.63;;;31.23;;
6027;SDS011;3042;43.194;27.646;2023-03-04T08:52:48;35.37;;;31.57;;
6027;SDS011;3042;43.194;27.646;2023-03-04T08:55:15;36.77;;;32.50;;
6027;SDS011;3042;43.194;27.646;2023-03-04T08:57:42;33.50;;;30.40;;
6027;SDS011;3042;43.194;27.646;2023-03-04T09:00:09;32.37;;;29.33;;
6027;SDS011;3042;43.194;27.646;2023-03-04T09:02:37;33.47;;;30.03;;
6027;SDS011;3042;43.194;27.646;2023-03-04T09:05:06;29.07;;;26.67;;
6027;SDS011;3042;43.194;27.646;2023-03-04T09:07:34;26.97;;;24.37;;
6027;SDS011;3042;43.194;27.646;2023-03-04T09:10:01;28.97;;;26.40;;
6027;SDS011;3042;43.194;27.646;2023-03-04T09:12:28;31.73;;;28.90;;
6027;SDS011;3042;43.194;27.646;2023-03-04T09:14:55;27.60;;;25.30;;
6027;SDS011;3042;43.194;27.646;2023-03-04T09:17:22;28.83;;;26.40;;
6027;SDS011;3042;43.194;27.646;2023-03-04T09:19:49;30.40;;;27.70;;
6027;SDS011;3042;43.194;27.646;2023-03-04T09:22:17;30.60;;;27.50;;
6027;SDS011;3042;43.194;27.646;2023-03-04T09:24:44;33.33;;;30.13;;
6027;SDS011;3042;43.194;27.646;2023-03-04T09:27:11;33.37;;;30.47;;
6027;SDS011;3042;43.194;27.646;2023-03-04T09:29:38;43.23;;;32.60;;
6027;SDS011;3042;43.194;27.646;2023-03-04T09:32:07;32.50;;;28.00;;
6027;SDS011;3042;43.194;27.646;2023-03-04T09:34:34;31.50;;;28.53;;
6027;SDS011;3042;43.194;27.646;2023-03-04T09:37:01;30.97;;;28.00;;
6027;SDS011;3042;43.194;27.646;2023-03-04T09:39:29;43.63;;;27.87;;
6027;SDS011;3042;43.194;27.646;2023-03-04T09:41:57;48.33;;;32.67;;
6027;SDS011;3042;43.194;27.646;2023-03-04T09:44:26;44.10;;;28.30;;
6027;SDS011;3042;43.194;27.646;2023-03-04T09:46:57;30.37;;;27.77;;
6027;SDS011;3042;43.194;27.646;2023-03-04T09:49:26;26.83;;;24.53;;
6027;SDS011;3042;43.194;27.646;2023-03-04T09:51:56;39.53;;;27.77;;
6027;SDS011;3042;43.194;27.646;2023-03-04T09:54:36;30.43;;;27.93;;
6027;SDS011;3042;43.194;27.646;2023-03-04T09:57:19;32.63;;;27.00;;
6027;SDS011;3042;43.194;27.646;2023-03-04T09:59:55;27.23;;;25.03;;
6027;SDS011;3042;43.194;27.646;2023-03-04T10:02:42;30.80;;;28.60;;
6027;SDS011;3042;43.194;27.646;2023-03-04T10:05:14;28.87;;;26.77;;
6027;SDS011;3042;43.194;27.646;2023-03-04T10:07:45;30.67;;;26.50;;
6027;SDS011;3042;43.194;27.646;2023-03-04T10:10:18;26.33;;;24.40;;
6027;SDS011;3042;43.194;27.646;2023-03-04T10:12:49;24.53;;;22.80;;
6027;SDS011;3042;43.194;27.646;2023-03-04T10:15:21;30.00;;;27.70;;
6027;SDS011;3042;43.194;27.646;2023-03-04T10:18:00;22.93;;;21.23;;
6027;SDS011;3042;43.194;27.646;2023-03-04T10:20:38;25.07;;;23.17;;
6027;SDS011;3042;43.194;27.646;2023-03-04T10:23:20;26.77;;;24.70;;
6027;SDS011;3042;43.194;27.646;2023-03-04T10:25:51;24.37;;;22.67;;
6027;SDS011;3042;43.194;27.646;2023-03-04T10:28:20;24.97;;;23.13;;
6027;SDS011;3042;43.194;27.646;2023-03-04T10:30:50;22.60;;;20.87;;
6027;SDS011;3042;43.194;27.646;2023-03-04T10:33:24;23.23;;;21.87;;
6027;SDS011;3042;43.194;27.646;2023-03-04T10:35:54;27.20;;;25.20;;
6027;SDS011;3042;43.194;27.646;2023-03-04T10:38:27;24.30;;;22.50;;
6027;SDS011;3042;43.194;27.646;2023-03-04T10:40:58;22.33;;;20.83;;
6027;SDS011;3042;43.194;27.646;2023-03-04T10:43:25;23.37;;;21.67;;
6027;SDS011;3042;43.194;27.646;2023-03-04T10:45:54;22.23;;;20.83;;
6027;SDS011;3042;43.194;27.646;2023-03-04T10:48:23;26.30;;;24.10;;
6027;SDS011;3042;43.194;27.646;2023-03-04T10:50:52;24.53;;;22.83;;
6027;SDS011;3042;43.194;27.646;2023-03-04T10:53:24;23.73;;;21.80;;
6027;SDS011;3042;43.194;27.646;2023-03-04T10:55:59;47.30;;;26.50;;
6027;SDS011;3042;43.194;27.646;2023-03-04T10:58:27;26.93;;;24.47;;
6027;SDS011;3042;43.194;27.646;2023-03-04T11:01:01;29.00;;;26.00;;
6027;SDS011;3042;43.194;27.646;2023-03-04T11:03:31;50.10;;;23.23;;
6027;SDS011;3042;43.194;27.646;2023-03-04T11:06:08;22.87;;;20.80;;
6027;SDS011;3042;43.194;27.646;2023-03-04T11:08:41;23.00;;;21.60;;
6027;SDS011;3042;43.194;27.646;2023-03-04T11:11:22;25.83;;;23.50;;
6027;SDS011;3042;43.194;27.646;2023-03-04T11:13:50;25.50;;;23.77;;
6027;SDS011;3042;43.194;27.646;2023-03-04T11:16:23;28.00;;;25.53;;
6027;SDS011;3042;43.194;27.646;2023-03-04T11:18:52;23.83;;;22.03;;
6027;SDS011;3042;43.194;27.646;2023-03-04T11:21:21;24.30;;;22.40;;
6027;SDS011;3042;43.194;27.646;2023-03-04T11:23:50;25.90;;;24.20;;
6027;SDS011;3042;43.194;27.646;2023-03-04T11:26:25;66.03;;;25.90;;
6027;SDS011;3042;43.194;27.646;2023-03-04T11:28:56;23.77;;;21.80;;
6027;SDS011;3042;43.194;27.646;2023-03-04T11:31:29;25.97;;;22.27;;
6027;SDS011;3042;43.194;27.646;2023-03-04T11:34:02;32.37;;;21.40;;
6027;SDS011;3042;43.194;27.646;2023-03-04T11:36:39;20.53;;;19.23;;
6027;SDS011;3042;43.194;27.646;2023-03-04T11:39:19;20.20;;;18.90;;
6027;SDS011;3042;43.194;27.646;2023-03-04T11:41:56;31.27;;;28.23;;
6027;SDS011;3042;43.194;27.646;2023-03-04T11:44:26;25.50;;;23.30;;
6027;SDS011;3042;43.194;27.646;2023-03-04T11:49:54;23.17;;;21.57;;
6027;SDS011;3042;43.194;27.646;2023-03-04T11:52:34;21.37;;;19.97;;
6027;SDS011;3042;43.194;27.646;2023-03-04T11:55:17;22.70;;;20.90;;
6027;SDS011;3042;43.194;27.646;2023-03-04T11:57:58;38.67;;;21.13;;
6027;SDS011;3042;43.194;27.646;2023-03-04T12:00:36;21.73;;;20.07;;
6027;SDS011;3042;43.194;27.646;2023-03-04T12:03:13;23.23;;;21.17;;
6027;SDS011;3042;43.194;27.646;2023-03-04T12:06:03;24.97;;;22.93;;
6027;SDS011;3042;43.194;27.646;2023-03-04T12:08:44;55.40;;;25.80;;
6027;SDS011;3042;43.194;27.646;2023-03-04T12:11:21;22.67;;;20.90;;
6027;SDS011;3042;43.194;27.646;2023-03-04T12:14:02;26.13;;;23.23;;
6027;SDS011;3042;43.194;27.646;2023-03-04T12:19:46;24.50;;;22.77;;
6027;SDS011;3042;43.194;27.646;2023-03-04T12:22:29;22.57;;;20.53;;
6027;SDS011;3042;43.194;27.646;2023-03-04T12:25:11;28.87;;;22.23;;
6027;SDS011;3042;43.194;27.646;2023-03-04T12:27:51;25.50;;;20.47;;
6027;SDS011;3042;43.194;27.646;2023-03-04T12:30:37;21.23;;;19.97;;
6027;SDS011;3042;43.194;27.646;2023-03-04T12:33:18;27.33;;;23.00;;
6027;SDS011;3042;43.194;27.646;2023-03-04T12:35:55;25.00;;;22.50;;
6027;SDS011;3042;43.194;27.646;2023-03-04T12:38:39;53.37;;;27.60;;
6027;SDS011;3042;43.194;27.646;2023-03-04T12:41:22;23.50;;;21.87;;
6027;SDS011;3042;43.194;27.646;2023-03-04T12:44:02;20.80;;;19.40;;
6027;SDS011;3042;43.194;27.646;2023-03-04T12:46:45;21.17;;;19.70;;
6027;SDS011;3042;43.194;27.646;2023-03-04T12:49:38;20.93;;;19.70;;
6027;SDS011;3042;43.194;27.646;2023-03-04T12:52:14;21.73;;;20.43;;
6027;SDS011;3042;43.194;27.646;2023-03-04T12:54:48;23.23;;;21.70;;
6027;SDS011;3042;43.194;27.646;2023-03-04T12:57:21;25.33;;;22.77;;
6027;SDS011;3042;43.194;27.646;2023-03-04T12:59:50;25.53;;;23.50;;
6027;SDS011;3042;43.194;27.646;2023-03-04T13:02:31;21.83;;;19.67;;
6027;SDS011;3042;43.194;27.646;2023-03-04T13:05:12;39.93;;;23.37;;
6027;SDS011;3042;43.194;27.646;2023-03-04T13:07:51;22.10;;;20.70;;
6027;SDS011;3042;43.194;27.646;2023-03-04T13:10:25;28.73;;;25.83;;
6027;SDS011;3042;43.194;27.646;2023-03-04T13:12:53;36.23;;;23.30;;
6027;SDS011;3042;43.194;27.646;2023-03-04T13:15:28;22.53;;;20.93;;
6027;SDS011;3042;43.194;27.646;2023-03-04T13:17:58;22.10;;;20.57;;
6027;SDS011;3042;43.194;27.646;2023-03-04T13:20:31;27.67;;;24.30;;
6027;SDS011;3042;43.194;27.646;2023-03-04T13:23:00;25.90;;;21.57;;
6027;SDS011;3042;43.194;27.646;2023-03-04T13:25:30;30.27;;;21.73;;
6027;SDS011;3042;43.194;27.646;2023-03-04T13:31:06;22.50;;;20.97;;
6027;SDS011;3042;43.194;27.646;2023-03-04T13:36:55;28.27;;;24.97;;
6027;SDS011;3042;43.194;27.646;2023-03-04T13:39:24;28.07;;;21.57;;
6027;SDS011;3042;43.194;27.646;2023-03-04T13:41:54;21.73;;;20.27;;
6027;SDS011;3042;43.194;27.646;2023-03-04T13:44:34;20.77;;;19.20;;
6027;SDS011;3042;43.194;27.646;2023-03-04T13:47:25;22.57;;;20.90;;
6027;SDS011;3042;43.194;27.646;2023-03-04T13:50:20;26.07;;;24.30;;
6027;SDS011;3042;43.194;27.646;2023-03-04T13:52:57;21.03;;;19.63;;
6027;SDS011;3042;43.194;27.646;2023-03-04T13:55:32;22.17;;;20.67;;
6027;SDS011;3042;43.194;27.646;2023-03-04T13:58:12;22.17;;;20.50;;
6027;SDS011;3042;43.194;27.646;2023-03-04T14:00:48;22.80;;;21.20;;
6027;SDS011;3042;43.194;27.646;2023-03-04T14:03:20;22.40;;;20.90;;
6027;SDS011;3042;43.194;27.646;2023-03-04T14:08:36;21.07;;;19.77;;
6027;SDS011;3042;43.194;27.646;2023-03-04T14:11:03;49.43;;;23.40;;
6027;SDS011;3042;43.194;27.646;2023-03-04T14:13:30;22.30;;;20.70;;
6027;SDS011;3042;43.194;27.646;2023-03-04T14:15:57;29.40;;;25.93;;
6027;SDS011;3042;43.194;27.646;2023-03-04T14:18:25;26.27;;;24.23;;
6027;SDS011;3042;43.194;27.646;2023-03-04T14:20:53;24.87;;;22.97;;
6027;SDS011;3042;43.194;27.646;2023-03-04T14:23:26;23.43;;;21.13;;
6027;SDS011;3042;43.194;27.646;2023-03-04T14:26:04;22.40;;;20.80;;
6027;SDS011;3042;43.194;27.646;2023-03-04T14:28:40;23.60;;;20.43;;
6027;SDS011;3042;43.194;27.646;2023-03-04T14:31:09;51.73;;;28.53;;
6027;SDS011;3042;43.194;27.646;2023-03-04T14:33:46;21.23;;;19.83;;
6027;SDS011;3042;43.194;27.646;2023-03-04T14:36:16;24.23;;;22.13;;
6027;SDS011;3042;43.194;27.646;2023-03-04T14:38:50;22.87;;;20.73;;
6027;SDS011;3042;43.194;27.646;2023-03-04T14:41:20;48.20;;;27.10;;
6027;SDS011;3042;43.194;27.646;2023-03-04T14:43:53;27.50;;;24.53;;
6027;SDS011;3042;43.194;27.646;2023-03-04T14:46:25;25.70;;;23.43;;
6027;SDS011;3042;43.194;27.646;2023-03-04T14:48:56;24.70;;;22.40;;
6027;SDS011;3042;43.194;27.646;2023-03-04T14:51:27;26.97;;;23.27;;
6027;SDS011;3042;43.194;27.646;2023-03-04T14:54:03;23.20;;;21.40;;
6027;SDS011;3042;43.194;27.646;2023-03-04T14:56:31;24.47;;;22.27;;
6027;SDS011;3042;43.194;27.646;2023-03-04T14:59:00;24.40;;;22.50;;
6027;SDS011;3042;43.194;27.646;2023-03-04T15:01:28;24.13;;;22.33;;
6027;SDS011;3042;43.194;27.646;2023-03-04T15:03:59;23.67;;;22.07;;
6027;SDS011;3042;43.194;27.646;2023-03-04T15:06:28;23.40;;;21.60;;